Time;durP1;ratioP1;P1;durP2;ratioP2;P2;SDS_P1;SDS_P2;PMS_P1;PMS_P2;Temp;Humidity;BMP_temperature;BMP_pressure;BME280_temperature;BME280_humidity;BME280_pressure;Samples;Min_cycle;Max_cycle;Signal;HPM_P1;HPM_P2
2022/03/17 00:00:13;;;;;;;15.33;13.83;;;;;;;;;;5058041;28;20190;-55
2022/03/17 00:02:40;;;;;;;15.90;14.33;;;;;;;;;;5056678;28;20742;-55
2022/03/17 00:05:10;;;;;;;15.63;14.00;;;;;;;;;;5072435;28;20237;-56
2022/03/17 00:07:37;;;;;;;14.90;13.40;;;;;;;;;;5060742;28;20181;-56
2022/03/17 00:10:05;;;;;;;16.90;15.30;;;;;;;;;;5055613;28;20176;-57
2022/03/17 00:12:31;;;;;;;17.87;14.37;;;;;;;;;;5072006;28;20211;-56
2022/03/17 00:14:57;;;;;;;15.87;14.17;;;;;;;;;;5074290;28;20176;-57
2022/03/17 00:17:23;;;;;;;15.23;13.73;;;;;;;;;;5076950;28;20192;-56
2022/03/17 00:19:50;;;;;;;17.10;15.30;;;;;;;;;;5073792;28;20183;-56
2022/03/17 00:22:16;;;;;;;16.13;14.53;;;;;;;;;;5048999;28;20226;-56
2022/03/17 00:24:43;;;;;;;15.70;13.93;;;;;;;;;;5072730;28;20263;-56
2022/03/17 00:27:10;;;;;;;18.40;14.10;;;;;;;;;;5077642;28;20286;-56
2022/03/17 00:29:37;;;;;;;16.13;14.53;;;;;;;;;;5058758;28;20172;-57
2022/03/17 00:32:04;;;;;;;15.70;14.10;;;;;;;;;;5055018;28;20179;-56
2022/03/17 00:34:30;;;;;;;15.87;14.17;;;;;;;;;;5073643;28;20180;-56
2022/03/17 00:36:57;;;;;;;16.47;13.77;;;;;;;;;;5051725;28;20180;-56
2022/03/17 00:39:25;;;;;;;14.83;13.40;;;;;;;;;;5060558;28;20673;-56
2022/03/17 00:41:51;;;;;;;15.17;13.67;;;;;;;;;;5054493;28;20594;-57
2022/03/17 00:44:17;;;;;;;15.60;14.03;;;;;;;;;;5061828;28;20636;-57
2022/03/17 00:46:44;;;;;;;17.00;14.50;;;;;;;;;;5056706;28;20208;-56
2022/03/17 00:49:12;;;;;;;15.87;13.83;;;;;;;;;;5076124;28;20514;-56
2022/03/17 00:51:40;;;;;;;15.63;14.00;;;;;;;;;;5058978;28;20595;-57
2022/03/17 00:54:09;;;;;;;16.20;14.57;;;;;;;;;;5058971;28;20185;-56
2022/03/17 00:56:35;;;;;;;15.87;14.33;;;;;;;;;;5052664;28;20214;-56
2022/03/17 00:59:02;;;;;;;17.03;15.33;;;;;;;;;;5062309;28;20194;-56
2022/03/17 01:01:28;;;;;;;15.67;14.17;;;;;;;;;;5056530;28;20271;-57
2022/03/17 01:03:55;;;;;;;18.17;14.57;;;;;;;;;;5074184;28;20625;-56
2022/03/17 01:06:21;;;;;;;16.27;13.87;;;;;;;;;;5052654;28;20671;-57
2022/03/17 01:08:48;;;;;;;17.70;15.07;;;;;;;;;;5074940;28;20450;-57
2022/03/17 01:11:14;;;;;;;17.93;14.80;;;;;;;;;;5056777;28;20322;-56
2022/03/17 01:13:41;;;;;;;15.93;14.33;;;;;;;;;;5072750;28;20750;-56
2022/03/17 01:16:07;;;;;;;16.77;14.83;;;;;;;;;;5077144;28;20175;-55
2022/03/17 01:18:34;;;;;;;15.87;14.27;;;;;;;;;;5060493;28;20188;-56
2022/03/17 01:21:01;;;;;;;15.10;13.50;;;;;;;;;;5075473;28;20182;-56
2022/03/17 01:23:27;;;;;;;16.17;14.47;;;;;;;;;;5053209;28;20184;-57
2022/03/17 01:25:57;;;;;;;17.83;15.53;;;;;;;;;;5054474;28;20266;-56
2022/03/17 01:28:23;;;;;;;17.93;15.63;;;;;;;;;;5055516;28;20217;-56
2022/03/17 01:30:50;;;;;;;17.10;15.30;;;;;;;;;;5056693;28;20229;-58
2022/03/17 01:33:16;;;;;;;16.53;14.77;;;;;;;;;;5075296;28;20180;-56
2022/03/17 01:35:43;;;;;;;17.97;15.37;;;;;;;;;;5073569;28;20187;-58
2022/03/17 01:38:09;;;;;;;17.77;15.63;;;;;;;;;;5073494;28;20188;-55
2022/03/17 01:40:36;;;;;;;16.50;14.80;;;;;;;;;;5069155;28;20180;-56
2022/03/17 01:43:02;;;;;;;16.87;15.17;;;;;;;;;;5056101;28;20188;-57
2022/03/17 01:45:29;;;;;;;17.77;15.80;;;;;;;;;;5077170;28;20203;-56
2022/03/17 01:47:56;;;;;;;17.93;14.80;;;;;;;;;;5055869;28;20219;-56
2022/03/17 01:50:23;;;;;;;16.53;14.83;;;;;;;;;;5073495;28;20583;-57
2022/03/17 01:52:50;;;;;;;16.87;15.17;;;;;;;;;;5040151;28;20173;-58
2022/03/17 01:55:18;;;;;;;17.93;15.53;;;;;;;;;;5059698;28;20263;-55
2022/03/17 01:57:44;;;;;;;18.17;15.53;;;;;;;;;;5059848;28;20203;-57
2022/03/17 02:00:13;;;;;;;16.90;15.20;;;;;;;;;;5073557;28;20576;-57
2022/03/17 02:02:41;;;;;;;16.23;14.63;;;;;;;;;;5075173;28;20211;-56
2022/03/17 02:05:07;;;;;;;17.27;15.43;;;;;;;;;;5072359;28;20180;-56
2022/03/17 02:07:34;;;;;;;17.17;15.40;;;;;;;;;;5042820;28;20231;-55
2022/03/17 02:10:01;;;;;;;17.07;15.13;;;;;;;;;;5059431;28;20183;-56
2022/03/17 02:15:12;;;;;;;17.87;15.97;;;;;;;;;;5076263;28;20604;-57
2022/03/17 02:17:43;;;;;;;18.20;16.20;;;;;;;;;;5055915;28;20225;-55
2022/03/17 02:20:11;;;;;;;16.93;15.23;;;;;;;;;;5073973;28;20192;-56
2022/03/17 02:22:45;;;;;;;17.00;15.30;;;;;;;;;;5042630;28;20180;-56
2022/03/17 02:27:59;;;;;;;16.50;14.80;;;;;;;;;;5075359;28;20178;-58
2022/03/17 02:30:25;;;;;;;18.10;15.17;;;;;;;;;;5074008;28;20194;-56
2022/03/17 02:32:59;;;;;;;17.30;15.50;;;;;;;;;;5056466;28;20184;-57
2022/03/17 02:35:26;;;;;;;18.23;15.17;;;;;;;;;;5072730;28;20223;-56
2022/03/17 02:37:52;;;;;;;17.60;15.47;;;;;;;;;;5075453;28;20183;-57
2022/03/17 02:40:21;;;;;;;16.77;15.00;;;;;;;;;;5075802;28;20638;-57
2022/03/17 02:42:48;;;;;;;18.07;16.17;;;;;;;;;;5058026;28;20322;-57
2022/03/17 02:45:15;;;;;;;17.63;15.83;;;;;;;;;;5052957;28;20544;-57
2022/03/17 02:47:42;;;;;;;18.33;16.37;;;;;;;;;;5070525;28;20813;-57
2022/03/17 02:50:13;;;;;;;17.40;15.60;;;;;;;;;;5075926;28;20632;-57
2022/03/17 02:52:39;;;;;;;17.07;15.33;;;;;;;;;;5040797;28;20187;-57
2022/03/17 02:55:06;;;;;;;16.97;15.27;;;;;;;;;;5056400;28;20176;-56
2022/03/17 02:57:32;;;;;;;17.03;15.33;;;;;;;;;;5057115;28;20208;-56
2022/03/17 02:59:58;;;;;;;19.10;17.10;;;;;;;;;;5055129;28;20188;-57
2022/03/17 03:02:25;;;;;;;17.97;15.67;;;;;;;;;;5054741;28;20221;-57
2022/03/17 03:04:52;;;;;;;18.30;15.60;;;;;;;;;;5069384;28;20207;-57
2022/03/17 03:07:19;;;;;;;17.17;15.27;;;;;;;;;;5045294;28;20211;-56
2022/03/17 03:09:45;;;;;;;18.40;15.97;;;;;;;;;;5070169;28;20179;-58
2022/03/17 03:12:11;;;;;;;17.97;15.63;;;;;;;;;;5047632;28;20297;-56
2022/03/17 03:14:38;;;;;;;18.23;16.33;;;;;;;;;;5032949;28;20223;-58
2022/03/17 03:17:06;;;;;;;19.27;16.77;;;;;;;;;;5054855;28;20192;-58
2022/03/17 03:19:33;;;;;;;16.70;14.93;;;;;;;;;;5037114;28;20342;-56
2022/03/17 03:21:59;;;;;;;17.10;15.30;;;;;;;;;;5042409;28;20184;-56
2022/03/17 03:24:26;;;;;;;18.53;16.50;;;;;;;;;;5037154;28;20193;-55
2022/03/17 03:26:52;;;;;;;17.40;15.50;;;;;;;;;;5057150;28;20679;-56
2022/03/17 03:31:44;;;;;;;18.07;16.27;;;;;;;;;;5056071;28;20264;-58
2022/03/17 03:34:11;;;;;;;18.83;16.83;;;;;;;;;;5025329;28;20179;-56
2022/03/17 03:39:22;;;;;;;18.73;16.70;;;;;;;;;;5057454;28;20721;-57
2022/03/17 03:41:49;;;;;;;21.40;16.67;;;;;;;;;;5051600;28;20203;-57
2022/03/17 03:44:15;;;;;;;18.27;16.33;;;;;;;;;;5038453;28;20193;-56
2022/03/17 03:46:42;;;;;;;18.63;16.57;;;;;;;;;;5053592;28;20193;-57
2022/03/17 03:49:09;;;;;;;20.13;17.00;;;;;;;;;;5043364;28;20173;-56
2022/03/17 03:51:35;;;;;;;18.30;16.40;;;;;;;;;;5035261;28;20207;-56
2022/03/17 03:54:15;;;;;;;18.80;16.80;;;;;;;;;;5056381;28;20314;-56
2022/03/17 03:56:52;;;;;;;18.87;16.70;;;;;;;;;;5038716;28;20209;-57
2022/03/17 03:59:20;;;;;;;18.60;16.60;;;;;;;;;;5040697;28;20185;-57
2022/03/17 04:01:47;;;;;;;17.93;15.87;;;;;;;;;;5039854;28;20177;-56
2022/03/17 04:04:19;;;;;;;18.07;16.10;;;;;;;;;;5015272;28;20185;-58
2022/03/17 04:06:50;;;;;;;18.77;16.87;;;;;;;;;;5033715;28;20201;-57
2022/03/17 04:09:19;;;;;;;18.33;16.53;;;;;;;;;;5056781;28;20172;-56
2022/03/17 04:11:46;;;;;;;19.67;16.70;;;;;;;;;;5034200;28;20614;-57
2022/03/17 04:14:13;;;;;;;19.77;17.67;;;;;;;;;;5039938;28;20173;-58
2022/03/17 04:16:39;;;;;;;24.43;22.13;;;;;;;;;;5038959;28;20177;-55
2022/03/17 04:19:06;;;;;;;20.80;17.00;;;;;;;;;;5056096;28;20260;-56
2022/03/17 04:21:33;;;;;;;18.97;17.07;;;;;;;;;;5056553;28;20243;-57
2022/03/17 04:23:59;;;;;;;20.30;18.17;;;;;;;;;;5056225;28;20191;-57
2022/03/17 04:26:27;;;;;;;18.10;16.30;;;;;;;;;;5036335;28;20271;-56
2022/03/17 04:28:53;;;;;;;19.30;17.30;;;;;;;;;;5055953;28;20199;-56
2022/03/17 04:31:23;;;;;;;21.40;17.83;;;;;;;;;;5039004;28;20172;-57
2022/03/17 04:33:49;;;;;;;19.73;17.73;;;;;;;;;;5053050;28;20664;-56
2022/03/17 04:36:16;;;;;;;19.63;17.73;;;;;;;;;;5035931;28;20181;-57
2022/03/17 04:38:43;;;;;;;20.67;18.57;;;;;;;;;;5035192;28;21436;-56
2022/03/17 04:41:10;;;;;;;19.47;16.93;;;;;;;;;;5035461;28;20200;-58
2022/03/17 04:43:36;;;;;;;20.07;18.07;;;;;;;;;;5052098;28;20766;-57
2022/03/17 04:46:03;;;;;;;21.03;18.17;;;;;;;;;;5055517;28;20192;-57
2022/03/17 04:48:29;;;;;;;22.07;17.60;;;;;;;;;;5051638;28;20597;-57
2022/03/17 04:50:55;;;;;;;21.03;18.83;;;;;;;;;;5037865;28;20539;-58
2022/03/17 04:53:27;;;;;;;20.63;18.43;;;;;;;;;;5032994;28;20829;-58
2022/03/17 04:55:54;;;;;;;18.80;16.83;;;;;;;;;;5033512;28;20660;-58
2022/03/17 04:58:23;;;;;;;19.83;17.20;;;;;;;;;;5053615;28;20207;-59
2022/03/17 05:00:52;;;;;;;20.23;17.97;;;;;;;;;;5034036;28;20664;-58
2022/03/17 05:03:19;;;;;;;22.13;19.93;;;;;;;;;;5053441;28;20200;-59
2022/03/17 05:05:45;;;;;;;19.77;17.77;;;;;;;;;;5055230;28;20524;-59
2022/03/17 05:08:11;;;;;;;20.03;17.07;;;;;;;;;;5036368;28;20665;-60
2022/03/17 05:10:38;;;;;;;21.10;17.57;;;;;;;;;;5025155;28;20282;-61
2022/03/17 05:13:05;;;;;;;20.63;17.67;;;;;;;;;;5053355;28;20353;-61
2022/03/17 05:15:32;;;;;;;21.97;18.87;;;;;;;;;;5054988;28;21182;-62
2022/03/17 05:17:59;;;;;;;18.83;16.87;;;;;;;;;;5042768;28;20195;-62
2022/03/17 05:20:25;;;;;;;20.30;18.30;;;;;;;;;;5075271;28;20569;-62
2022/03/17 05:22:55;;;;;;;20.00;17.93;;;;;;;;;;5055507;28;20184;-62
2022/03/17 05:25:22;;;;;;;21.17;19.03;;;;;;;;;;5073169;28;20187;-62
2022/03/17 05:27:49;;;;;;;19.60;17.60;;;;;;;;;;5073827;28;20175;-63
2022/03/17 05:30:17;;;;;;;21.07;18.77;;;;;;;;;;5060903;28;20176;-61
2022/03/17 05:32:45;;;;;;;22.37;19.37;;;;;;;;;;5056293;28;20651;-62
2022/03/17 05:35:12;;;;;;;20.23;17.67;;;;;;;;;;5056501;28;20183;-62
2022/03/17 05:37:39;;;;;;;20.10;17.83;;;;;;;;;;5056615;28;20176;-61
2022/03/17 05:40:06;;;;;;;20.07;17.60;;;;;;;;;;5075563;28;20175;-61
2022/03/17 05:42:33;;;;;;;18.63;16.67;;;;;;;;;;5057299;28;20287;-62
2022/03/17 05:44:59;;;;;;;20.63;17.57;;;;;;;;;;5077796;28;20582;-62
2022/03/17 05:47:25;;;;;;;20.40;18.27;;;;;;;;;;5074766;28;20222;-61
2022/03/17 05:49:51;;;;;;;20.73;18.53;;;;;;;;;;5072222;28;20218;-61
2022/03/17 05:52:17;;;;;;;19.27;17.30;;;;;;;;;;5052729;28;20188;-61
2022/03/17 05:54:44;;;;;;;21.00;18.10;;;;;;;;;;5075838;28;20176;-61
2022/03/17 05:57:11;;;;;;;20.23;18.03;;;;;;;;;;5075541;28;20686;-61
2022/03/17 05:59:41;;;;;;;21.80;19.50;;;;;;;;;;5055189;28;20557;-61
2022/03/17 06:02:07;;;;;;;19.60;17.60;;;;;;;;;;5052444;28;20176;-61
2022/03/17 06:04:34;;;;;;;19.70;17.43;;;;;;;;;;5056394;28;20741;-59
2022/03/17 06:07:00;;;;;;;21.27;19.07;;;;;;;;;;5074832;28;20227;-60
2022/03/17 06:09:27;;;;;;;20.97;18.67;;;;;;;;;;5052283;28;20191;-59
2022/03/17 06:11:55;;;;;;;20.37;18.27;;;;;;;;;;5051887;28;20216;-60
2022/03/17 06:14:21;;;;;;;20.63;18.43;;;;;;;;;;5080681;28;20216;-61
2022/03/17 06:16:47;;;;;;;20.60;18.43;;;;;;;;;;5084758;28;20176;-60
2022/03/17 06:19:13;;;;;;;19.37;17.37;;;;;;;;;;5085968;28;20175;-60
2022/03/17 06:21:39;;;;;;;16.53;14.83;;;;;;;;;;5083280;28;20183;-60
2022/03/17 06:24:09;;;;;;;14.93;13.33;;;;;;;;;;5070264;28;20183;-60
2022/03/17 06:26:35;;;;;;;15.60;13.87;;;;;;;;;;5052493;28;20242;-60
2022/03/17 06:29:02;;;;;;;15.00;13.50;;;;;;;;;;5071775;28;20589;-60
2022/03/17 06:31:31;;;;;;;16.03;11.53;;;;;;;;;;5084523;28;20176;-60
2022/03/17 06:33:57;;;;;;;14.90;13.48;;;;;;;;;;5064341;28;20790;-60
2022/03/17 06:36:26;;;;;;;13.20;11.80;;;;;;;;;;5073971;28;20215;-61
2022/03/17 06:38:52;;;;;;;12.13;10.83;;;;;;;;;;5066736;28;20203;-61
2022/03/17 06:41:18;;;;;;;13.37;11.07;;;;;;;;;;5054016;28;20176;-61
2022/03/17 06:43:45;;;;;;;11.53;10.33;;;;;;;;;;5087554;28;20594;-61
2022/03/17 06:46:11;;;;;;;14.63;11.30;;;;;;;;;;5068965;28;20207;-60
2022/03/17 06:48:37;;;;;;;14.23;12.07;;;;;;;;;;5083370;28;20203;-60
2022/03/17 06:51:05;;;;;;;14.17;12.73;;;;;;;;;;5065839;28;20189;-61
2022/03/17 06:53:31;;;;;;;12.30;10.63;;;;;;;;;;5065387;28;20180;-60
2022/03/17 06:55:58;;;;;;;12.03;10.77;;;;;;;;;;5069001;28;20180;-60
2022/03/17 06:58:24;;;;;;;13.23;11.83;;;;;;;;;;5065254;28;20215;-61
2022/03/17 07:00:50;;;;;;;12.27;10.53;;;;;;;;;;5079609;28;20176;-61
2022/03/17 07:03:17;;;;;;;12.00;10.33;;;;;;;;;;5064071;28;20554;-60
2022/03/17 07:05:46;;;;;;;23.03;11.50;;;;;;;;;;5087014;28;20200;-60
2022/03/17 07:08:12;;;;;;;32.23;12.17;;;;;;;;;;5063908;28;20470;-61
2022/03/17 07:10:42;;;;;;;15.03;10.03;;;;;;;;;;5080158;28;20195;-61
2022/03/17 07:13:08;;;;;;;17.20;9.53;;;;;;;;;;5073268;28;20282;-61
2022/03/17 07:15:34;;;;;;;11.53;10.33;;;;;;;;;;5067660;28;20662;-59
2022/03/17 07:18:01;;;;;;;10.17;9.17;;;;;;;;;;5068837;28;20179;-62
2022/03/17 07:20:28;;;;;;;10.70;9.13;;;;;;;;;;5086001;28;20686;-59
2022/03/17 07:22:54;;;;;;;10.70;8.33;;;;;;;;;;5082718;28;20175;-61
2022/03/17 07:25:21;;;;;;;10.13;9.13;;;;;;;;;;5064987;28;20712;-60
2022/03/17 07:27:48;;;;;;;7.23;6.50;;;;;;;;;;5074152;28;20531;-60
2022/03/17 07:30:19;;;;;;;8.47;6.90;;;;;;;;;;5084134;28;20263;-60
2022/03/17 07:32:48;;;;;;;10.47;6.20;;;;;;;;;;5065617;28;20229;-59
2022/03/17 07:35:15;;;;;;;7.47;6.67;;;;;;;;;;5059940;28;20180;-59
2022/03/17 07:37:42;;;;;;;9.83;6.40;;;;;;;;;;5072178;28;20183;-59
2022/03/17 07:40:09;;;;;;;7.70;6.70;;;;;;;;;;5072989;28;21375;-61
2022/03/17 07:42:35;;;;;;;9.63;6.40;;;;;;;;;;5086511;28;20191;-59
2022/03/17 07:45:02;;;;;;;11.17;6.30;;;;;;;;;;5065120;28;20187;-59
2022/03/17 07:47:28;;;;;;;9.23;5.73;;;;;;;;;;5052368;28;20196;-60
2022/03/17 07:49:55;;;;;;;9.83;5.77;;;;;;;;;;5067881;28;20171;-59
2022/03/17 07:52:22;;;;;;;8.07;5.17;;;;;;;;;;5057463;28;20188;-59
2022/03/17 07:54:48;;;;;;;11.50;5.80;;;;;;;;;;5063513;28;20620;-60
2022/03/17 07:57:15;;;;;;;9.57;5.50;;;;;;;;;;5067386;28;20565;-60
2022/03/17 07:59:41;;;;;;;9.50;4.80;;;;;;;;;;5071079;28;20187;-60
2022/03/17 08:02:08;;;;;;;9.30;4.80;;;;;;;;;;5066850;28;20180;-60
2022/03/17 08:04:34;;;;;;;6.07;4.50;;;;;;;;;;5063170;28;20568;-60
2022/03/17 08:07:01;;;;;;;7.23;4.23;;;;;;;;;;5082258;28;20229;-59
2022/03/17 08:09:27;;;;;;;6.87;4.30;;;;;;;;;;5054499;28;20192;-59
2022/03/17 08:11:54;;;;;;;6.87;4.10;;;;;;;;;;5054734;28;20180;-60
2022/03/17 08:14:20;;;;;;;6.97;4.80;;;;;;;;;;5059697;28;20548;-61
2022/03/17 08:16:47;;;;;;;9.73;4.13;;;;;;;;;;5080668;28;20258;-60
2022/03/17 08:19:13;;;;;;;10.33;4.07;;;;;;;;;;5079075;28;20640;-60
2022/03/17 08:21:40;;;;;;;8.37;4.30;;;;;;;;;;5068225;28;20718;-60
2022/03/17 08:24:07;;;;;;;8.27;4.10;;;;;;;;;;5066121;28;20176;-60
2022/03/17 08:26:34;;;;;;;7.33;4.00;;;;;;;;;;5062321;28;20215;-60
2022/03/17 08:29:01;;;;;;;7.00;4.03;;;;;;;;;;5077444;28;20623;-59
2022/03/17 08:31:30;;;;;;;6.53;3.80;;;;;;;;;;5084624;28;20262;-59
2022/03/17 08:33:56;;;;;;;6.23;3.73;;;;;;;;;;5081039;28;20177;-59
2022/03/17 08:36:23;;;;;;;5.90;3.83;;;;;;;;;;5072326;28;20584;-60
2022/03/17 08:38:49;;;;;;;10.83;3.77;;;;;;;;;;5054746;28;20207;-60
2022/03/17 08:41:15;;;;;;;5.40;3.43;;;;;;;;;;5079602;28;20207;-59
2022/03/17 08:43:41;;;;;;;4.47;3.40;;;;;;;;;;5080934;28;20301;-59
2022/03/17 08:51:37;;;;;;;5.43;3.10;;;;;;;;;;5078906;28;20179;-60
2022/03/17 08:54:03;;;;;;;5.47;3.30;;;;;;;;;;5080491;28;20175;-60
2022/03/17 08:56:29;;;;;;;5.40;3.20;;;;;;;;;;5066977;28;20238;-60
2022/03/17 08:58:55;;;;;;;7.13;3.00;;;;;;;;;;5082922;28;20184;-60
2022/03/17 09:01:21;;;;;;;4.43;3.07;;;;;;;;;;5076713;28;20192;-60
2022/03/17 09:03:48;;;;;;;5.63;3.37;;;;;;;;;;5083938;28;20602;-60
2022/03/17 09:06:17;;;;;;;5.87;2.40;;;;;;;;;;5084699;28;20195;-60
2022/03/17 09:08:43;;;;;;;6.83;3.03;;;;;;;;;;5058866;28;20743;-60
2022/03/17 09:11:13;;;;;;;6.40;3.63;;;;;;;;;;5068771;28;20190;-60
2022/03/17 09:13:39;;;;;;;4.33;2.17;;;;;;;;;;5080520;28;20749;-61
2022/03/17 09:16:06;;;;;;;2.97;2.67;;;;;;;;;;5079400;28;20183;-59
2022/03/17 09:18:33;;;;;;;3.80;2.10;;;;;;;;;;5078838;28;20190;-59
2022/03/17 09:21:03;;;;;;;3.70;2.50;;;;;;;;;;5065923;28;20209;-60
2022/03/17 09:23:29;;;;;;;4.30;2.50;;;;;;;;;;5063847;28;20746;-60
2022/03/17 09:25:56;;;;;;;7.77;3.10;;;;;;;;;;5077594;28;20243;-60
2022/03/17 09:28:22;;;;;;;5.70;2.30;;;;;;;;;;5061284;28;20238;-60
2022/03/17 09:30:50;;;;;;;3.10;2.80;;;;;;;;;;5066595;28;20191;-60
2022/03/17 09:33:16;;;;;;;4.40;2.53;;;;;;;;;;5074973;28;20553;-60
2022/03/17 09:35:42;;;;;;;4.07;1.90;;;;;;;;;;5084054;28;20183;-59
2022/03/17 09:38:08;;;;;;;4.90;2.40;;;;;;;;;;5087124;28;20681;-60
2022/03/17 09:40:38;;;;;;;3.90;2.03;;;;;;;;;;5080410;28;20728;-59
2022/03/17 09:43:28;;;;;;;4.23;2.23;;;;;;;;;;5078263;28;20605;-60
2022/03/17 09:45:54;;;;;;;5.03;2.27;;;;;;;;;;5083993;28;20249;-59
2022/03/17 09:48:21;;;;;;;5.13;2.73;;;;;;;;;;5080793;28;20210;-59
2022/03/17 09:50:48;;;;;;;7.47;2.70;;;;;;;;;;5071826;28;20188;-59
2022/03/17 09:53:14;;;;;;;4.77;2.50;;;;;;;;;;5075583;28;20183;-60
2022/03/17 09:55:43;;;;;;;2.50;1.90;;;;;;;;;;5082237;28;20195;-60
2022/03/17 09:58:10;;;;;;;2.80;1.80;;;;;;;;;;5081379;28;20203;-60
2022/03/17 10:00:48;;;;;;;3.37;2.23;;;;;;;;;;5077783;28;20195;-60
2022/03/17 10:03:34;;;;;;;4.30;2.10;;;;;;;;;;5075357;28;20176;-60
2022/03/17 10:06:05;;;;;;;4.23;2.27;;;;;;;;;;5076721;28;20290;-60
2022/03/17 10:08:33;;;;;;;4.80;1.97;;;;;;;;;;5061756;28;20536;-60
2022/03/17 10:10:59;;;;;;;3.73;2.10;;;;;;;;;;5082190;28;20176;-61
2022/03/17 10:13:26;;;;;;;4.53;1.90;;;;;;;;;;5082415;28;20223;-61
2022/03/17 10:16:25;;;;;;;3.87;2.20;;;;;;;;;;5075741;28;20221;-60
2022/03/17 10:19:01;;;;;;;4.13;2.07;;;;;;;;;;5026359;28;20594;-60
2022/03/17 10:21:28;;;;;;;4.33;2.20;;;;;;;;;;5076640;28;20540;-60
2022/03/17 10:23:57;;;;;;;6.37;2.20;;;;;;;;;;5082229;28;20647;-60
2022/03/17 10:26:40;;;;;;;5.10;2.10;;;;;;;;;;5080131;28;20253;-61
2022/03/17 10:29:11;;;;;;;5.93;2.20;;;;;;;;;;5067512;28;20225;-61
2022/03/17 10:32:06;;;;;;;3.03;1.97;;;;;;;;;;5070994;28;20275;-61
2022/03/17 10:34:47;;;;;;;2.60;1.63;;;;;;;;;;5066333;28;20219;-61
2022/03/17 10:37:15;;;;;;;5.57;2.20;;;;;;;;;;5081994;28;20312;-60
2022/03/17 10:39:45;;;;;;;4.93;2.00;;;;;;;;;;5074896;28;20188;-61
2022/03/17 10:42:18;;;;;;;4.23;2.00;;;;;;;;;;5081974;28;20183;-61
2022/03/17 10:44:51;;;;;;;5.27;2.43;;;;;;;;;;5082041;28;20189;-61
2022/03/17 10:47:30;;;;;;;3.37;2.07;;;;;;;;;;5077786;28;20646;-61
2022/03/17 10:50:13;;;;;;;4.20;2.10;;;;;;;;;;5081170;28;20172;-61
2022/03/17 10:53:00;;;;;;;3.80;2.10;;;;;;;;;;5077609;28;20184;-61
2022/03/17 10:55:30;;;;;;;6.23;1.97;;;;;;;;;;5072781;28;20529;-60
2022/03/17 10:57:58;;;;;;;6.80;2.20;;;;;;;;;;5078846;28;20725;-60
2022/03/17 11:00:26;;;;;;;3.43;2.00;;;;;;;;;;5078266;28;20614;-59
2022/03/17 11:02:59;;;;;;;5.73;2.30;;;;;;;;;;5077490;28;20712;-59
2022/03/17 11:05:29;;;;;;;2.67;2.10;;;;;;;;;;5056823;28;20191;-60
2022/03/17 11:07:57;;;;;;;4.40;2.23;;;;;;;;;;5074570;28;20179;-59
2022/03/17 11:10:24;;;;;;;12.33;3.07;;;;;;;;;;5083746;28;21440;-60
2022/03/17 11:12:51;;;;;;;9.67;2.83;;;;;;;;;;5074003;28;20211;-60
2022/03/17 11:15:25;;;;;;;7.70;2.60;;;;;;;;;;5063515;28;20548;-60
2022/03/17 11:17:51;;;;;;;5.33;2.10;;;;;;;;;;5076510;28;20191;-61
2022/03/17 11:20:18;;;;;;;4.03;1.83;;;;;;;;;;5076084;28;20690;-61
2022/03/17 11:22:50;;;;;;;7.40;2.83;;;;;;;;;;5074731;28;20690;-60
2022/03/17 11:25:18;;;;;;;3.73;1.80;;;;;;;;;;5079432;28;20188;-61
2022/03/17 11:27:46;;;;;;;3.23;1.93;;;;;;;;;;5062931;28;20754;-60
2022/03/17 11:30:16;;;;;;;4.20;2.10;;;;;;;;;;5072467;28;20197;-61
2022/03/17 11:32:54;;;;;;;6.47;2.40;;;;;;;;;;5080619;28;20173;-60
2022/03/17 11:35:21;;;;;;;6.03;1.97;;;;;;;;;;5081468;28;20573;-60
2022/03/17 11:37:47;;;;;;;4.30;1.90;;;;;;;;;;5067197;28;20176;-60
2022/03/17 11:40:15;;;;;;;6.57;2.47;;;;;;;;;;5064061;28;20180;-61
2022/03/17 11:42:42;;;;;;;3.17;1.80;;;;;;;;;;5080636;28;20255;-60
2022/03/17 11:45:34;;;;;;;3.47;2.00;;;;;;;;;;5081210;28;20267;-60
2022/03/17 11:48:02;;;;;;;3.93;1.80;;;;;;;;;;5078670;28;20180;-60
2022/03/17 11:50:38;;;;;;;4.97;2.27;;;;;;;;;;5074626;28;20517;-60
2022/03/17 11:53:13;;;;;;;4.40;2.17;;;;;;;;;;5082257;28;20639;-60
2022/03/17 11:55:42;;;;;;;3.43;2.00;;;;;;;;;;5080298;28;20180;-60
2022/03/17 11:58:33;;;;;;;5.83;2.40;;;;;;;;;;5078571;28;20687;-60
2022/03/17 12:01:13;;;;;;;3.40;1.87;;;;;;;;;;5076182;28;20263;-60
2022/03/17 12:03:41;;;;;;;4.93;2.00;;;;;;;;;;5080958;28;20651;-60
2022/03/17 12:06:09;;;;;;;3.90;2.30;;;;;;;;;;5079734;28;20238;-60
2022/03/17 12:08:47;;;;;;;4.30;2.33;;;;;;;;;;5078093;28;20237;-61
2022/03/17 12:11:18;;;;;;;4.27;2.03;;;;;;;;;;5079356;28;20574;-59
2022/03/17 12:14:04;;;;;;;10.70;2.20;;;;;;;;;;5075758;28;20622;-60
2022/03/17 12:16:41;;;;;;;5.23;1.97;;;;;;;;;;5079540;28;20190;-59
2022/03/17 12:19:07;;;;;;;5.67;2.10;;;;;;;;;;5064743;28;20212;-59
2022/03/17 12:21:52;;;;;;;4.73;2.40;;;;;;;;;;5080484;28;20650;-59
2022/03/17 12:24:38;;;;;;;4.83;2.03;;;;;;;;;;5080061;28;20630;-60
2022/03/17 12:27:14;;;;;;;7.70;2.77;;;;;;;;;;5080029;28;20225;-61
2022/03/17 12:29:41;;;;;;;2.60;1.80;;;;;;;;;;5069265;28;20229;-60
2022/03/17 12:32:08;;;;;;;3.67;1.70;;;;;;;;;;5072518;28;20234;-60
2022/03/17 12:34:35;;;;;;;5.47;2.10;;;;;;;;;;5078316;28;20191;-59
2022/03/17 12:37:02;;;;;;;3.13;1.90;;;;;;;;;;5078936;28;20229;-59
2022/03/17 12:39:28;;;;;;;4.13;1.90;;;;;;;;;;5082677;28;20188;-61
2022/03/17 12:41:55;;;;;;;7.80;3.03;;;;;;;;;;5091397;28;20236;-59
2022/03/17 12:44:25;;;;;;;7.37;2.13;;;;;;;;;;5082133;28;20180;-61
2022/03/17 12:46:52;;;;;;;2.90;1.90;;;;;;;;;;5080705;28;20203;-60
2022/03/17 12:49:19;;;;;;;4.20;1.90;;;;;;;;;;5078923;28;20176;-61
2022/03/17 12:51:45;;;;;;;3.57;2.17;;;;;;;;;;5065964;28;20183;-60
2022/03/17 12:54:15;;;;;;;4.43;2.27;;;;;;;;;;5081500;28;20176;-60
2022/03/17 12:56:48;;;;;;;5.50;1.80;;;;;;;;;;5086967;28;20210;-61
2022/03/17 12:59:14;;;;;;;5.77;2.17;;;;;;;;;;5083363;28;20207;-61
2022/03/17 13:01:41;;;;;;;7.53;2.50;;;;;;;;;;5068966;28;20183;-61
2022/03/17 13:04:08;;;;;;;4.83;2.10;;;;;;;;;;5065204;28;21057;-60
2022/03/17 13:06:54;;;;;;;4.37;2.03;;;;;;;;;;5048248;28;20620;-60
2022/03/17 13:09:33;;;;;;;4.33;2.13;;;;;;;;;;5080253;28;20191;-61
2022/03/17 13:14:52;;;;;;;2.77;1.90;;;;;;;;;;5073981;28;20191;-59
2022/03/17 13:17:30;;;;;;;5.47;2.60;;;;;;;;;;5080341;28;20753;-60
2022/03/17 13:19:56;;;;;;;4.97;2.00;;;;;;;;;;5077339;28;20178;-59
2022/03/17 13:22:28;;;;;;;3.23;2.33;;;;;;;;;;5061066;28;20189;-60
2022/03/17 13:25:01;;;;;;;5.53;1.93;;;;;;;;;;5060685;28;20295;-59
2022/03/17 13:27:27;;;;;;;3.60;2.03;;;;;;;;;;5065627;28;20327;-61
2022/03/17 13:29:54;;;;;;;4.83;2.40;;;;;;;;;;5078727;28;20526;-61
2022/03/17 13:32:21;;;;;;;5.57;2.43;;;;;;;;;;5074423;28;20328;-60
2022/03/17 13:34:58;;;;;;;4.97;2.47;;;;;;;;;;5061658;28;20545;-60
2022/03/17 13:37:32;;;;;;;5.20;2.30;;;;;;;;;;5060901;28;20196;-60
2022/03/17 13:40:06;;;;;;;5.97;2.43;;;;;;;;;;5058426;28;20175;-60
2022/03/17 13:42:32;;;;;;;6.73;2.70;;;;;;;;;;5083060;28;20628;-60
2022/03/17 13:44:58;;;;;;;5.20;2.67;;;;;;;;;;5063910;28;20226;-60
2022/03/17 13:47:26;;;;;;;4.00;2.10;;;;;;;;;;5043764;28;20211;-60
2022/03/17 13:50:10;;;;;;;5.63;2.43;;;;;;;;;;5079265;28;20326;-59
2022/03/17 13:52:37;;;;;;;5.53;2.47;;;;;;;;;;5065995;28;20530;-60
2022/03/17 13:55:07;;;;;;;5.23;2.60;;;;;;;;;;5072423;28;20199;-59
2022/03/17 13:57:33;;;;;;;5.03;2.50;;;;;;;;;;5074964;28;20238;-60
2022/03/17 13:59:59;;;;;;;4.50;2.30;;;;;;;;;;5066263;28;20194;-59
2022/03/17 14:02:27;;;;;;;7.50;2.33;;;;;;;;;;5080272;28;20673;-59
2022/03/17 14:04:56;;;;;;;6.33;2.80;;;;;;;;;;5079193;28;20179;-59
2022/03/17 14:07:23;;;;;;;6.57;2.47;;;;;;;;;;5085510;28;20262;-59
2022/03/17 14:09:49;;;;;;;8.03;3.37;;;;;;;;;;5080775;28;20942;-59
2022/03/17 14:12:15;;;;;;;6.87;2.27;;;;;;;;;;5080871;28;20201;-59
2022/03/17 14:14:41;;;;;;;4.73;3.20;;;;;;;;;;5081975;28;20173;-59
2022/03/17 14:17:10;;;;;;;3.30;2.83;;;;;;;;;;5084049;28;20205;-59
2022/03/17 14:19:36;;;;;;;5.60;2.27;;;;;;;;;;5088313;28;20170;-59
2022/03/17 14:24:47;;;;;;;5.30;2.90;;;;;;;;;;5086682;28;20179;-59
2022/03/17 14:27:13;;;;;;;10.60;3.10;;;;;;;;;;5078682;28;20239;-58
2022/03/17 14:29:39;;;;;;;4.63;2.67;;;;;;;;;;5084370;28;20191;-58
2022/03/17 14:32:05;;;;;;;5.57;3.13;;;;;;;;;;5076471;28;20317;-59
2022/03/17 14:34:32;;;;;;;6.57;3.10;;;;;;;;;;5072599;28;20231;-59
2022/03/17 14:36:59;;;;;;;5.57;2.80;;;;;;;;;;5077399;28;20691;-59
2022/03/17 14:39:25;;;;;;;7.83;2.70;;;;;;;;;;5060650;28;20199;-59
2022/03/17 14:41:53;;;;;;;5.63;3.03;;;;;;;;;;5073717;28;20180;-59
2022/03/17 14:44:19;;;;;;;4.93;3.03;;;;;;;;;;5079496;28;20527;-59
2022/03/17 14:46:45;;;;;;;6.17;2.97;;;;;;;;;;5082241;28;20207;-59
2022/03/17 14:49:12;;;;;;;6.00;2.70;;;;;;;;;;5072338;28;20620;-57
2022/03/17 14:51:39;;;;;;;6.17;3.37;;;;;;;;;;5081419;28;20219;-57
2022/03/17 14:54:05;;;;;;;5.70;3.37;;;;;;;;;;5076518;28;20187;-58
2022/03/17 14:56:32;;;;;;;3.97;2.93;;;;;;;;;;5070699;28;20228;-57
2022/03/17 14:58:58;;;;;;;6.20;2.97;;;;;;;;;;5071197;28;20191;-58